EDT,Max TemperatureF,Mean TemperatureF,Min TemperatureF,Max Dew PointF,MeanDew PointF,Min DewpointF,Max Humidity, Mean Humidity, Min Humidity, Max Sea Level PressureIn, Mean Sea Level PressureIn, Min Sea Level PressureIn, Max VisibilityMiles, Mean VisibilityMiles, Min VisibilityMiles, Max Wind SpeedMPH, Mean Wind SpeedMPH, Max Gust SpeedMPH,PrecipitationIn, CloudCover, Events, WindDirDegrees
2011-10-1,62,56,49,46,38,32,76,53,33,29.91,29.83,29.75,10,10,10,13,5,21,0.00,2,,297
2011-10-2,59,51,43,41,37,31,83,62,35,30.02,29.94,29.90,10,10,10,12,6,21,0.00,5,,268
2011-10-3,64,55,46,49,40,37,80,60,39,30.11,30.05,29.99,10,10,7,12,5,23,0.00,5,,264
2011-10-4,69,56,42,50,44,41,93,66,38,30.24,30.18,30.13,10,10,1,9,4,,0.00,1,,304
2011-10-5,74,62,50,53,47,40,86,62,29,30.28,30.23,30.18,10,10,10,7,3,,0.00,0,,320
2011-10-6,72,61,50,52,50,46,94,71,40,30.37,30.32,30.26,10,10,10,9,2,,0.00,0,,30
2011-10-7,71,58,44,49,46,42,95,70,35,30.45,30.41,30.37,10,10,10,9,1,,0.00,0,,57
2011-10-8,71,58,45,53,47,40,97,71,33,30.52,30.47,30.42,10,8,0,9,2,,0.00,0,Fog,48
2011-10-9,74,62,49,58,49,41,97,73,32,30.47,30.41,30.33,10,7,0,9,3,,0.00,2,Fog-Rain,32
2011-10-10,73,63,53,57,54,52,95,75,50,30.33,30.24,30.14,10,10,10,10,3,,0.00,0,,27
2011-10-11,65,62,60,58,57,53,93,79,65,30.13,30.07,29.98,10,9,4,15,5,21,0.04,7,Rain,35
2011-10-12,72,67,63,69,65,62,96,94,90,29.97,29.87,29.79,10,5,2,12,6,,0.05,8,Rain,90
2011-10-13,77,73,69,69,67,62,96,84,59,29.77,29.70,29.60,10,8,3,13,5,23,0.00,7,Rain,177
2011-10-14,72,66,60,61,51,36,91,65,26,29.74,29.63,29.56,10,10,7,20,9,29,0.01,5,,230
2011-10-15,71,58,46,46,40,31,89,59,24,29.94,29.90,29.84,10,10,10,14,5,22,0.00,0,,242
2011-10-16,76,62,47,43,36,32,67,39,22,30.14,30.05,29.94,10,10,10,14,6,18,0.00,0,,228
2011-10-17,84,70,56,53,48,44,72,49,29,29.92,29.88,29.82,10,10,10,21,12,25,0.00,0,,216
2011-10-18,82,70,57,56,52,48,84,57,30,29.87,29.82,29.76,10,10,3,12,7,16,0.00,0,,198
2011-10-19,66,62,59,65,60,57,96,94,90,29.72,29.48,29.31,10,6,2,14,7,20,0.00,8,Rain,49
2011-10-20,57,50,44,48,42,38,88,69,48,29.84,29.66,29.45,10,10,10,21,14,28,0.00,4,,215
2011-10-21,63,52,41,45,41,38,93,68,41,30.07,30.02,29.92,10,10,1,8,4,,0.00,0,,245
2011-10-22,62,52,43,46,43,40,95,77,44,30.17,30.12,30.08,10,10,10,8,3,,0.00,2,,4
2011-10-23,65,52,40,50,43,40,97,75,41,30.18,30.12,30.08,10,8,2,5,0,,0.00,1,,109
2011-10-24,69,56,42,52,46,41,96,73,42,30.14,30.08,30.02,10,8,2,7,1,,0.02,0,,238
2011-10-25,68,57,46,46,41,34,92,56,28,30.27,30.19,30.10,10,10,2,7,4,,0.00,0,,311
2011-10-26,73,59,45,51,46,41,85,65,39,30.15,30.03,29.90,10,10,10,15,7,22,0.00,0,,211
2011-10-27,77,65,53,50,49,47,81,61,36,29.89,29.81,29.71,10,10,10,18,11,23,0.00,0,,216
2011-10-28,61,51,41,44,37,28,93,67,46,30.19,30.10,29.94,10,9,2,16,10,23,0.00,8,Rain,29
2011-10-29,49,44,38,40,38,32,96,84,55,30.04,29.95,29.90,10,7,2,14,8,24,0.00,7,Rain,332
2011-10-30,54,42,30,36,31,24,97,71,32,30.32,30.25,30.11,10,10,7,7,2,,0.00,0,,51
2011-10-31,55,44,32,44,34,28,96,68,43,30.35,30.29,30.21,10,9,4,7,3,,0.00,3,Rain,103